香港 の空港の天気 - METARとTAF

香港国際空港 ( VHHH / HKG ) - 香港 赤リョウ角
飛行場実況気象(Metar)
観測時間05/08 05:00 HKT (05/07 21:00 UTC)
風向・風速南南東 2m/s
視程10km以上
天気現象
少しの雲 雲底高度 400m
気温25℃
湿度83%
気圧1009hPa
METARVHHH 072100Z 15004KT 080V200 9999 FEW013 25/22 Q1009 NOSIG
過去の天気等 Google飛行場航空写真 Wunderground天気予報

過去48時間のMETAR

飛行場予報(TAF)
発表時間: 5/08 01:00 HKT (5/07 17:00 UTC)
予報対象時間: 8日2時 HKT ~ 9日8時 HKT
風向・風速不定 3m/s
視程10km以上
少しの雲 雲底高度 760m
8日8時 HKT ~ 8日10時 HKT に徐々に
風向・風速西南西 5m/s
8日17時 HKT ~ 8日19時 HKT に徐々に
風向・風速不定 3m/s
TAF VHHH 071700Z 0718/0824 VRB05KT 9999 FEW025 TX32/0806Z TN25/0722Z TN25/0822Z
BECMG 0800/0802 24010KT
BECMG 0809/0811 VRB05KT